Terminal Aerodrome Forecast
Issued by NWS Binghamton, NY

Home | Current Version | Previous Version | Text Only | Print | Product List | Glossary On
Versions: 1 2 3 4 5 6 7 8 9 10 11 12 13 14 15 16 17 18 19 20 21
000
FTUS41 KBGM 301120
TAFSYR
TAF
KSYR 301120Z 3012/3112 23007KT P6SM SCT060 BKN120
      TEMPO 3012/3015 BKN060
     FM301800 28010G18KT P6SM SCT050
     FM310000 28005KT P6SM SCT250=

USA.gov is the U.S. government's official web portal to all federal, state and local government web resources and services.